Terminal Aerodrome Forecast
Issued by NWS

Home | Current Version | Previous Version | Text Only | Print | Product List | Glossary On
Versions: 1 2 3 4 5 6 7 8 9 10 11 12
000
FTUS42 KMLB 260525
TAFTIX
TAF
KTIX 260525Z 2606/2706 11005KT P6SM FEW025 SCT250
     FM261400 11012KT P6SM FEW025
     FM261700 10012G18KT P6SM SCT030 BKN050
     FM270000 09008KT P6SM FEW025 BKN250
      AMD NOT SKED TIL 261200=

USA.gov is the U.S. government's official web portal to all federal, state and local government web resources and services.